WXM80 ListenWXM80 Stop

You find our weather info also at:

UK Metoffice

WeatherCloud

Weather Underground

Northeastern Weather Network

AWEKAS

Citizen Weather Observer Program (CWOP)

HAMweather, WeatherForYou, PWS Weather


Weather Underground History page Text

Daily Summary for February 16, 2018 Units:  Both    English   Metric
« Previous Day
Next Day »
Daily Weekly Monthly Yearly Custom
  High: Low: Average:
Temperature: 56.9 °F /  13.8 °C 36.5 °F /  2.5 °C 49.2 °F /  9.6 °C
Dew Point: 54.7 °F /  12.6 °C 28.1 °F /  -2.2 °C 45.6 °F /  7.6 °C
Humidity: 98 % 70 % 87 %
Wind Speed: 9.6 mph /  15.4 km/h - 2.8 mph /  4.5 km/h
Wind Gust: 18.4 mph /  29.6 km/h - -
Wind:- - West
Pressure: 29.91 in /  1012.8 hPa 29.32 in /  992.8 hPa -
Precipitation: 0.00 in /  0 mm    
Historical Graphs
 
 
Tabular Data for February 16, 2018
Time Temperature Dew Point Pressure Wind Wind Speed Wind Gust Humidity Rainfall Rate (Hourly)
00:01 54.4 °F /  12.4 °C 53.0 °F /  11.7 °C 29.40 in /  995.5 hPa SW 2.9 mph /  4.7 km/h 5.8 mph /  9.3 km/h 95 % 0.00 in /  0 mm
00:06 54.5 °F /  12.5 °C 53.1 °F /  11.7 °C 29.40 in /  995.5 hPa SW 5.0 mph /  8 km/h 8.0 mph /  12.9 km/h 95 % 0.00 in /  0 mm
00:11 54.6 °F /  12.6 °C 53.2 °F /  11.8 °C 29.40 in /  995.5 hPa SW 3.0 mph /  4.8 km/h 8.0 mph /  12.9 km/h 95 % 0.00 in /  0 mm
00:16 54.7 °F /  12.6 °C 53.6 °F /  12 °C 29.40 in /  995.5 hPa SW 3.5 mph /  5.6 km/h 5.8 mph /  9.3 km/h 96 % 0.00 in /  0 mm
00:21 54.8 °F /  12.7 °C 53.7 °F /  12.1 °C 29.39 in /  995.1 hPa SSW 2.3 mph /  3.7 km/h 4.6 mph /  7.4 km/h 96 % 0.00 in /  0 mm
00:26 55.0 °F /  12.8 °C 53.9 °F /  12.2 °C 29.38 in /  994.8 hPa SW 3.8 mph /  6.1 km/h 8.1 mph /  13 km/h 96 % 0.00 in /  0 mm
00:31 55.2 °F /  12.9 °C 54.1 °F /  12.3 °C 29.37 in /  994.5 hPa SSW 3.2 mph /  5.1 km/h 6.9 mph /  11.1 km/h 96 % 0.00 in /  0 mm
00:36 55.4 °F /  13 °C 54.3 °F /  12.4 °C 29.37 in /  994.5 hPa SSW 2.0 mph /  3.2 km/h 5.8 mph /  9.3 km/h 96 % 0.00 in /  0 mm
00:41 55.5 °F /  13.1 °C 54.4 °F /  12.4 °C 29.36 in /  994.1 hPa SSW 2.4 mph /  3.9 km/h 3.5 mph /  5.6 km/h 96 % 0.00 in /  0 mm
00:46 55.6 °F /  13.1 °C 54.5 °F /  12.5 °C 29.36 in /  994.1 hPa South 3.1 mph /  5 km/h 6.0 mph /  9.7 km/h 96 % 0.00 in /  0 mm
00:51 55.6 °F /  13.1 °C 54.5 °F /  12.5 °C 29.35 in /  993.8 hPa SSW 1.0 mph /  1.6 km/h 4.0 mph /  6.4 km/h 96 % 0.00 in /  0 mm
00:56 55.7 °F /  13.2 °C 54.6 °F /  12.6 °C 29.34 in /  993.5 hPa South 3.8 mph /  6.1 km/h 5.8 mph /  9.3 km/h 96 % 0.00 in /  0 mm
01:01 55.7 °F /  13.2 °C 54.6 °F /  12.6 °C 29.34 in /  993.5 hPa SSE 1.2 mph /  1.9 km/h 4.0 mph /  6.4 km/h 96 % 0.00 in /  0 mm
01:06 55.8 °F /  13.2 °C 54.7 °F /  12.6 °C 29.33 in /  993.1 hPa South 0.4 mph /  0.6 km/h 1.0 mph /  1.6 km/h 96 % 0.00 in /  0 mm
01:11 55.8 °F /  13.2 °C 54.7 °F /  12.6 °C 29.33 in /  993.1 hPa South 0.4 mph /  0.6 km/h 2.0 mph /  3.2 km/h 96 % 0.00 in /  0 mm
01:16 55.7 °F /  13.2 °C 54.6 °F /  12.6 °C 29.34 in /  993.5 hPa South 0.4 mph /  0.6 km/h 1.2 mph /  1.9 km/h 96 % 0.00 in /  0 mm
01:21 55.7 °F /  13.2 °C 54.6 °F /  12.6 °C 29.33 in /  993.1 hPa WSW 0.7 mph /  1.1 km/h 3.5 mph /  5.6 km/h 96 % 0.00 in /  0 mm
01:26 55.7 °F /  13.2 °C 54.6 °F /  12.6 °C 29.33 in /  993.1 hPa WSW 0.3 mph /  0.5 km/h 2.3 mph /  3.7 km/h 96 % 0.00 in /  0 mm
01:31 54.9 °F /  12.7 °C 53.5 °F /  11.9 °C 29.33 in /  993.1 hPa West 1.4 mph /  2.3 km/h 2.3 mph /  3.7 km/h 95 % 0.00 in /  0 mm
01:36 54.2 °F /  12.3 °C 52.5 °F /  11.4 °C 29.33 in /  993.1 hPa NW 2.4 mph /  3.9 km/h 3.5 mph /  5.6 km/h 94 % 0.00 in /  0 mm
01:41 53.2 °F /  11.8 °C 50.6 °F /  10.3 °C 29.34 in /  993.5 hPa NW 1.9 mph /  3.1 km/h 3.5 mph /  5.6 km/h 91 % 0.00 in /  0 mm
01:46 52.5 °F /  11.4 °C 49.7 °F /  9.8 °C 29.34 in /  993.5 hPa Calm   1.2 mph /  1.9 km/h 90 % 0.00 in /  0 mm
01:52 51.9 °F /  11.1 °C 49.1 °F /  9.5 °C 29.35 in /  993.8 hPa Calm     90 % 0.00 in /  0 mm
02:02 51.2 °F /  10.7 °C 48.7 °F /  9.3 °C 29.35 in /  993.8 hPa NW 0.3 mph /  0.5 km/h 1.2 mph /  1.9 km/h 91 % 0.00 in /  0 mm
02:07 50.8 °F /  10.4 °C 48.3 °F /  9.1 °C 29.35 in /  993.8 hPa Calm     91 % 0.00 in /  0 mm
02:12 50.4 °F /  10.2 °C 47.9 °F /  8.8 °C 29.35 in /  993.8 hPa Calm     91 % 0.00 in /  0 mm
02:17 50.1 °F /  10.1 °C 47.6 °F /  8.7 °C 29.35 in /  993.8 hPa Calm     91 % 0.00 in /  0 mm
02:22 49.9 °F /  9.9 °C 47.4 °F /  8.6 °C 29.35 in /  993.8 hPa Calm     91 % 0.00 in /  0 mm
02:27 49.6 °F /  9.8 °C 47.4 °F /  8.6 °C 29.35 in /  993.8 hPa Calm     92 % 0.00 in /  0 mm
02:32 49.4 °F /  9.7 °C 47.2 °F /  8.4 °C 29.35 in /  993.8 hPa Calm     92 % 0.00 in /  0 mm
02:37 49.1 °F /  9.5 °C 46.9 °F /  8.3 °C 29.35 in /  993.8 hPa Calm     92 % 0.00 in /  0 mm
02:42 49.0 °F /  9.4 °C 46.8 °F /  8.2 °C 29.34 in /  993.5 hPa Calm     92 % 0.00 in /  0 mm
02:47 48.9 °F /  9.4 °C 47.0 °F /  8.3 °C 29.34 in /  993.5 hPa Calm     93 % 0.00 in /  0 mm
02:52 48.8 °F /  9.3 °C 46.9 °F /  8.3 °C 29.33 in /  993.1 hPa NW 1.0 mph /  1.6 km/h 2.3 mph /  3.7 km/h 93 % 0.00 in /  0 mm
02:57 48.8 °F /  9.3 °C 46.9 °F /  8.3 °C 29.33 in /  993.1 hPa Calm   1.0 mph /  1.6 km/h 93 % 0.00 in /  0 mm
03:02 48.7 °F /  9.3 °C 46.8 °F /  8.2 °C 29.32 in /  992.8 hPa NW 0.4 mph /  0.6 km/h 2.3 mph /  3.7 km/h 93 % 0.00 in /  0 mm
03:07 48.9 °F /  9.4 °C 47.2 °F /  8.4 °C 29.32 in /  992.8 hPa SW 0.4 mph /  0.6 km/h 1.2 mph /  1.9 km/h 94 % 0.00 in /  0 mm
03:12 49.4 °F /  9.7 °C 48.0 °F /  8.9 °C 29.32 in /  992.8 hPa SW 0.9 mph /  1.4 km/h 4.0 mph /  6.4 km/h 95 % 0.00 in /  0 mm
03:17 49.9 °F /  9.9 °C 48.8 °F /  9.3 °C 29.32 in /  992.8 hPa WSW 0.9 mph /  1.4 km/h 3.5 mph /  5.6 km/h 96 % 0.00 in /  0 mm
03:22 50.3 °F /  10.2 °C 49.2 °F /  9.6 °C 29.32 in /  992.8 hPa WSW 2.7 mph /  4.3 km/h 5.0 mph /  8 km/h 96 % 0.00 in /  0 mm
03:28 51.1 °F /  10.6 °C 50.3 °F /  10.2 °C 29.33 in /  993.1 hPa WSW 5.9 mph /  9.5 km/h 8.1 mph /  13 km/h 97 % 0.00 in /  0 mm
03:33 51.6 °F /  10.9 °C 50.8 °F /  10.4 °C 29.32 in /  992.8 hPa WSW 0.8 mph /  1.3 km/h 2.3 mph /  3.7 km/h 97 % 0.00 in /  0 mm
03:38 52.1 °F /  11.2 °C 51.3 °F /  10.7 °C 29.32 in /  992.8 hPa SW 2.5 mph /  4 km/h 4.0 mph /  6.4 km/h 97 % 0.00 in /  0 mm
03:43 52.4 °F /  11.3 °C 51.6 °F /  10.9 °C 29.33 in /  993.1 hPa SW 3.4 mph /  5.5 km/h 5.0 mph /  8 km/h 97 % 0.00 in /  0 mm
03:48 52.6 °F /  11.4 °C 51.8 °F /  11 °C 29.33 in /  993.1 hPa SW 0.2 mph /  0.3 km/h 2.3 mph /  3.7 km/h 97 % 0.00 in /  0 mm
03:53 52.8 °F /  11.6 °C 52.0 °F /  11.1 °C 29.34 in /  993.5 hPa WSW 0.3 mph /  0.5 km/h 3.5 mph /  5.6 km/h 97 % 0.00 in /  0 mm
03:58 53.0 °F /  11.7 °C 52.2 °F /  11.2 °C 29.33 in /  993.1 hPa West 0.1 mph /  0.2 km/h 2.3 mph /  3.7 km/h 97 % 0.00 in /  0 mm
04:03 53.1 °F /  11.7 °C 52.3 °F /  11.3 °C 29.34 in /  993.5 hPa Calm     97 % 0.00 in /  0 mm
04:08 53.0 °F /  11.7 °C 52.2 °F /  11.2 °C 29.33 in /  993.1 hPa Calm     97 % 0.00 in /  0 mm
04:13 52.7 °F /  11.5 °C 51.9 °F /  11.1 °C 29.32 in /  992.8 hPa Calm     97 % 0.00 in /  0 mm
04:18 52.6 °F /  11.4 °C 51.8 °F /  11 °C 29.32 in /  992.8 hPa Calm     97 % 0.00 in /  0 mm
04:23 52.4 °F /  11.3 °C 51.6 °F /  10.9 °C 29.32 in /  992.8 hPa Calm     97 % 0.00 in /  0 mm
04:28 52.2 °F /  11.2 °C 51.4 °F /  10.8 °C 29.32 in /  992.8 hPa Calm     97 % 0.00 in /  0 mm
04:33 52.1 °F /  11.2 °C 51.3 °F /  10.7 °C 29.32 in /  992.8 hPa Calm     97 % 0.00 in /  0 mm
04:39 52.0 °F /  11.1 °C 51.2 °F /  10.7 °C 29.33 in /  993.1 hPa Calm     97 % 0.00 in /  0 mm
04:44 51.8 °F /  11 °C 51.0 °F /  10.6 °C 29.33 in /  993.1 hPa Calm     97 % 0.00 in /  0 mm
04:49 51.7 °F /  10.9 °C 50.6 °F /  10.3 °C 29.33 in /  993.1 hPa West 0.3 mph /  0.5 km/h 1.2 mph /  1.9 km/h 96 % 0.00 in /  0 mm
04:54 51.3 °F /  10.7 °C 50.2 °F /  10.1 °C 29.32 in /  992.8 hPa WNW 0.2 mph /  0.3 km/h 1.2 mph /  1.9 km/h 96 % 0.00 in /  0 mm
04:59 51.0 °F /  10.6 °C 49.9 °F /  9.9 °C 29.32 in /  992.8 hPa Calm     96 % 0.00 in /  0 mm
05:04 50.8 °F /  10.4 °C 49.7 °F /  9.8 °C 29.32 in /  992.8 hPa Calm     96 % 0.00 in /  0 mm
05:09 50.6 °F /  10.3 °C 49.5 °F /  9.7 °C 29.32 in /  992.8 hPa Calm     96 % 0.00 in /  0 mm
05:14 50.4 °F /  10.2 °C 49.3 °F /  9.6 °C 29.32 in /  992.8 hPa Calm     96 % 0.00 in /  0 mm
05:19 50.2 °F /  10.1 °C 49.1 °F /  9.5 °C 29.32 in /  992.8 hPa Calm     96 % 0.00 in /  0 mm
05:24 50.1 °F /  10.1 °C 49.0 °F /  9.4 °C 29.32 in /  992.8 hPa Calm     96 % 0.00 in /  0 mm
05:29 49.9 °F /  9.9 °C 48.8 °F /  9.3 °C 29.32 in /  992.8 hPa Calm     96 % 0.00 in /  0 mm
05:34 49.8 °F /  9.9 °C 48.7 °F /  9.3 °C 29.32 in /  992.8 hPa Calm     96 % 0.00 in /  0 mm
05:39 49.7 °F /  9.8 °C 48.6 °F /  9.2 °C 29.32 in /  992.8 hPa Calm     96 % 0.00 in /  0 mm
05:44 49.7 °F /  9.8 °C 48.6 °F /  9.2 °C 29.32 in /  992.8 hPa WNW 0.1 mph /  0.2 km/h   96 % 0.00 in /  0 mm
05:49 49.7 °F /  9.8 °C 48.6 °F /  9.2 °C 29.33 in /  993.1 hPa Calm     96 % 0.00 in /  0 mm
05:55 49.6 °F /  9.8 °C 48.5 °F /  9.2 °C 29.33 in /  993.1 hPa Calm     96 % 0.00 in /  0 mm
06:00 49.6 °F /  9.8 °C 48.5 °F /  9.2 °C 29.33 in /  993.1 hPa Calm     96 % 0.00 in /  0 mm
06:05 49.5 °F /  9.7 °C 48.4 °F /  9.1 °C 29.33 in /  993.1 hPa Calm     96 % 0.00 in /  0 mm
06:10 49.5 °F /  9.7 °C 48.4 °F /  9.1 °C 29.34 in /  993.5 hPa NW 2.9 mph /  4.7 km/h 9.2 mph /  14.8 km/h 96 % 0.00 in /  0 mm
06:15 49.4 °F /  9.7 °C 48.3 °F /  9.1 °C 29.34 in /  993.5 hPa WNW 1.6 mph /  2.6 km/h 3.5 mph /  5.6 km/h 96 % 0.00 in /  0 mm
06:20 49.3 °F /  9.6 °C 48.2 °F /  9 °C 29.34 in /  993.5 hPa Calm   1.2 mph /  1.9 km/h 96 % 0.00 in /  0 mm
06:25 49.3 °F /  9.6 °C 48.2 °F /  9 °C 29.34 in /  993.5 hPa WSW 1.5 mph /  2.4 km/h 3.5 mph /  5.6 km/h 96 % 0.00 in /  0 mm
06:30 49.3 °F /  9.6 °C 48.2 °F /  9 °C 29.34 in /  993.5 hPa WSW 1.5 mph /  2.4 km/h 2.3 mph /  3.7 km/h 96 % 0.00 in /  0 mm
06:35 49.3 °F /  9.6 °C 48.2 °F /  9 °C 29.34 in /  993.5 hPa WSW 0.3 mph /  0.5 km/h 2.0 mph /  3.2 km/h 96 % 0.00 in /  0 mm
06:40 49.3 °F /  9.6 °C 48.2 °F /  9 °C 29.33 in /  993.1 hPa WSW 0.3 mph /  0.5 km/h 2.3 mph /  3.7 km/h 96 % 0.00 in /  0 mm
06:45 49.4 °F /  9.7 °C 48.3 °F /  9.1 °C 29.33 in /  993.1 hPa WSW 0.1 mph /  0.2 km/h 1.2 mph /  1.9 km/h 96 % 0.00 in /  0 mm
06:50 49.5 °F /  9.7 °C 48.7 °F /  9.3 °C 29.33 in /  993.1 hPa WSW 0.2 mph /  0.3 km/h 3.5 mph /  5.6 km/h 97 % 0.00 in /  0 mm
06:55 49.7 °F /  9.8 °C 48.9 °F /  9.4 °C 29.32 in /  992.8 hPa WSW 1.4 mph /  2.3 km/h 2.3 mph /  3.7 km/h 97 % 0.00 in /  0 mm
07:00 49.9 °F /  9.9 °C 49.1 °F /  9.5 °C 29.34 in /  993.5 hPa WSW 1.0 mph /  1.6 km/h 2.0 mph /  3.2 km/h 97 % 0.00 in /  0 mm
07:05 50.1 °F /  10.1 °C 49.3 °F /  9.6 °C 29.34 in /  993.5 hPa WSW 1.2 mph /  1.9 km/h 3.5 mph /  5.6 km/h 97 % 0.00 in /  0 mm
07:10 50.4 °F /  10.2 °C 49.6 °F /  9.8 °C 29.35 in /  993.8 hPa WSW 0.6 mph /  1 km/h 3.0 mph /  4.8 km/h 97 % 0.00 in /  0 mm
07:15 50.9 °F /  10.5 °C 50.1 °F /  10.1 °C 29.35 in /  993.8 hPa WNW 3.7 mph /  6 km/h 5.8 mph /  9.3 km/h 97 % 0.00 in /  0 mm
07:20 51.8 °F /  11 °C 51.3 °F /  10.7 °C 29.36 in /  994.1 hPa NNW 4.4 mph /  7.1 km/h 9.2 mph /  14.8 km/h 98 % 0.00 in /  0 mm
07:26 51.9 °F /  11.1 °C 51.4 °F /  10.8 °C 29.37 in /  994.5 hPa North 3.0 mph /  4.8 km/h 7.0 mph /  11.3 km/h 98 % 0.00 in /  0 mm
07:31 51.5 °F /  10.8 °C 50.7 °F /  10.4 °C 29.37 in /  994.5 hPa NNW 3.0 mph /  4.8 km/h 10.0 mph /  16.1 km/h 97 % 0.00 in /  0 mm
07:36 51.1 °F /  10.6 °C 50.3 °F /  10.2 °C 29.38 in /  994.8 hPa NNW 5.0 mph /  8 km/h 7.0 mph /  11.3 km/h 97 % 0.00 in /  0 mm
07:41 50.7 °F /  10.4 °C 49.9 °F /  9.9 °C 29.38 in /  994.8 hPa North 5.0 mph /  8 km/h 8.0 mph /  12.9 km/h 97 % 0.00 in /  0 mm
07:46 50.5 °F /  10.3 °C 49.7 °F /  9.8 °C 29.38 in /  994.8 hPa North 1.0 mph /  1.6 km/h 5.0 mph /  8 km/h 97 % 0.00 in /  0 mm
07:51 50.3 °F /  10.2 °C 49.5 °F /  9.7 °C 29.38 in /  994.8 hPa North 1.0 mph /  1.6 km/h 4.0 mph /  6.4 km/h 97 % 0.00 in /  0 mm
07:56 50.2 °F /  10.1 °C 49.4 °F /  9.7 °C 29.39 in /  995.1 hPa Calm   3.0 mph /  4.8 km/h 97 % 0.00 in /  0 mm
08:01 50.2 °F /  10.1 °C 49.4 °F /  9.7 °C 29.38 in /  994.8 hPa North 0.2 mph /  0.3 km/h 2.3 mph /  3.7 km/h 97 % 0.00 in /  0 mm
08:06 50.1 °F /  10.1 °C 49.3 °F /  9.6 °C 29.38 in /  994.8 hPa North 1.4 mph /  2.3 km/h 3.5 mph /  5.6 km/h 97 % 0.00 in /  0 mm
08:11 50.1 °F /  10.1 °C 49.3 °F /  9.6 °C 29.38 in /  994.8 hPa Calm     97 % 0.00 in /  0 mm
08:16 50.1 °F /  10.1 °C 49.3 °F /  9.6 °C 29.38 in /  994.8 hPa Calm     97 % 0.00 in /  0 mm
08:21 50.1 °F /  10.1 °C 49.3 °F /  9.6 °C 29.39 in /  995.1 hPa Calm     97 % 0.00 in /  0 mm
08:26 50.1 °F /  10.1 °C 49.3 °F /  9.6 °C 29.39 in /  995.1 hPa Calm     97 % 0.00 in /  0 mm
08:31 50.2 °F /  10.1 °C 49.4 °F /  9.7 °C 29.38 in /  994.8 hPa Calm     97 % 0.00 in /  0 mm
08:36 50.3 °F /  10.2 °C 49.5 °F /  9.7 °C 29.38 in /  994.8 hPa Calm     97 % 0.00 in /  0 mm
08:41 50.3 °F /  10.2 °C 49.5 °F /  9.7 °C 29.38 in /  994.8 hPa Calm     97 % 0.00 in /  0 mm
08:46 50.5 °F /  10.3 °C 49.7 °F /  9.8 °C 29.37 in /  994.5 hPa Calm     97 % 0.00 in /  0 mm
08:51 50.6 °F /  10.3 °C 49.8 °F /  9.9 °C 29.37 in /  994.5 hPa Calm     97 % 0.00 in /  0 mm
08:56 50.7 °F /  10.4 °C 49.9 °F /  9.9 °C 29.36 in /  994.1 hPa Calm     97 % 0.00 in /  0 mm
09:01 50.8 °F /  10.4 °C 50.0 °F /  10 °C 29.37 in /  994.5 hPa Calm     97 % 0.00 in /  0 mm
09:06 50.9 °F /  10.5 °C 50.1 °F /  10.1 °C 29.37 in /  994.5 hPa Calm     97 % 0.00 in /  0 mm
09:11 51.0 °F /  10.6 °C 50.2 °F /  10.1 °C 29.36 in /  994.1 hPa Calm     97 % 0.00 in /  0 mm
09:17 51.2 °F /  10.7 °C 50.4 °F /  10.2 °C 29.36 in /  994.1 hPa Calm     97 % 0.00 in /  0 mm
09:22 51.4 °F /  10.8 °C 50.6 °F /  10.3 °C 29.35 in /  993.8 hPa East 1.6 mph /  2.6 km/h 2.3 mph /  3.7 km/h 97 % 0.00 in /  0 mm
09:27 51.6 °F /  10.9 °C 50.8 °F /  10.4 °C 29.35 in /  993.8 hPa SE 0.3 mph /  0.5 km/h 2.0 mph /  3.2 km/h 97 % 0.00 in /  0 mm
09:32 51.7 °F /  10.9 °C 50.9 °F /  10.5 °C 29.35 in /  993.8 hPa SE 0.2 mph /  0.3 km/h 2.3 mph /  3.7 km/h 97 % 0.00 in /  0 mm
09:37 51.7 °F /  10.9 °C 50.9 °F /  10.5 °C 29.35 in /  993.8 hPa SE 1.3 mph /  2.1 km/h 3.5 mph /  5.6 km/h 97 % 0.00 in /  0 mm
09:42 51.9 °F /  11.1 °C 51.1 °F /  10.6 °C 29.36 in /  994.1 hPa SSW 2.5 mph /  4 km/h 3.5 mph /  5.6 km/h 97 % 0.00 in /  0 mm
09:47 52.0 °F /  11.1 °C 51.2 °F /  10.7 °C 29.36 in /  994.1 hPa Calm     97 % 0.00 in /  0 mm
09:52 52.1 °F /  11.2 °C 51.3 °F /  10.7 °C 29.35 in /  993.8 hPa SSW 0.9 mph /  1.4 km/h 2.3 mph /  3.7 km/h 97 % 0.00 in /  0 mm
09:57 52.3 °F /  11.3 °C 51.8 °F /  11 °C 29.35 in /  993.8 hPa Calm   2.3 mph /  3.7 km/h 98 % 0.00 in /  0 mm
10:02 52.5 °F /  11.4 °C 51.7 °F /  10.9 °C 29.36 in /  994.1 hPa SW 0.3 mph /  0.5 km/h 2.0 mph /  3.2 km/h 97 % 0.00 in /  0 mm
10:07 52.8 °F /  11.6 °C 52.0 °F /  11.1 °C 29.36 in /  994.1 hPa SW 1.5 mph /  2.4 km/h 4.6 mph /  7.4 km/h 97 % 0.00 in /  0 mm
10:12 53.0 °F /  11.7 °C 52.5 °F /  11.4 °C 29.36 in /  994.1 hPa SW 0.1 mph /  0.2 km/h 1.2 mph /  1.9 km/h 98 % 0.00 in /  0 mm
10:17 53.2 °F /  11.8 °C 52.7 °F /  11.5 °C 29.37 in /  994.5 hPa WSW 2.7 mph /  4.3 km/h 3.5 mph /  5.6 km/h 98 % 0.00 in /  0 mm
10:22 53.6 °F /  12 °C 53.0 °F /  11.7 °C 29.37 in /  994.5 hPa SW 0.9 mph /  1.4 km/h 3.0 mph /  4.8 km/h 98 % 0.00 in /  0 mm
10:27 53.8 °F /  12.1 °C 53.2 °F /  11.8 °C 29.37 in /  994.5 hPa WSW 2.4 mph /  3.9 km/h 6.0 mph /  9.7 km/h 98 % 0.00 in /  0 mm
10:32 54.0 °F /  12.2 °C 53.4 °F /  11.9 °C 29.37 in /  994.5 hPa SW 3.0 mph /  4.8 km/h 4.0 mph /  6.4 km/h 98 % 0.00 in /  0 mm
10:37 54.2 °F /  12.3 °C 53.6 °F /  12 °C 29.36 in /  994.1 hPa SW 4.0 mph /  6.4 km/h 4.0 mph /  6.4 km/h 98 % 0.00 in /  0 mm
10:43 54.3 °F /  12.4 °C 53.7 °F /  12.1 °C 29.36 in /  994.1 hPa SW 3.2 mph /  5.1 km/h 6.9 mph /  11.1 km/h 98 % 0.00 in /  0 mm
10:48 54.5 °F /  12.5 °C 53.9 °F /  12.2 °C 29.36 in /  994.1 hPa WSW 4.3 mph /  6.9 km/h 8.1 mph /  13 km/h 98 % 0.00 in /  0 mm
10:53 54.6 °F /  12.6 °C 54.0 °F /  12.2 °C 29.37 in /  994.5 hPa West 0.6 mph /  1 km/h 3.5 mph /  5.6 km/h 98 % 0.00 in /  0 mm
10:58 54.7 °F /  12.6 °C 54.1 °F /  12.3 °C 29.37 in /  994.5 hPa West 4.0 mph /  6.4 km/h 8.0 mph /  12.9 km/h 98 % 0.00 in /  0 mm
11:03 54.8 °F /  12.7 °C 54.2 °F /  12.3 °C 29.37 in /  994.5 hPa SW 5.0 mph /  8 km/h 8.1 mph /  13 km/h 98 % 0.00 in /  0 mm
11:08 54.9 °F /  12.7 °C 54.1 °F /  12.3 °C 29.38 in /  994.8 hPa SW 1.9 mph /  3.1 km/h 8.1 mph /  13 km/h 97 % 0.00 in /  0 mm
11:13 55.0 °F /  12.8 °C 54.2 °F /  12.3 °C 29.38 in /  994.8 hPa South 5.1 mph /  8.2 km/h 10.0 mph /  16.1 km/h 97 % 0.00 in /  0 mm
11:18 55.2 °F /  12.9 °C 54.1 °F /  12.3 °C 29.38 in /  994.8 hPa West 4.1 mph /  6.6 km/h 8.1 mph /  13 km/h 96 % 0.00 in /  0 mm
11:23 55.4 °F /  13 °C 54.3 °F /  12.4 °C 29.37 in /  994.5 hPa WSW 4.4 mph /  7.1 km/h 5.8 mph /  9.3 km/h 96 % 0.00 in /  0 mm
11:28 55.6 °F /  13.1 °C 54.2 °F /  12.3 °C 29.37 in /  994.5 hPa West 2.4 mph /  3.9 km/h 10.0 mph /  16.1 km/h 95 % 0.00 in /  0 mm
11:33 55.6 °F /  13.1 °C 53.9 °F /  12.2 °C 29.37 in /  994.5 hPa WSW 5.8 mph /  9.3 km/h 9.0 mph /  14.5 km/h 94 % 0.00 in /  0 mm
11:38 55.7 °F /  13.2 °C 53.4 °F /  11.9 °C 29.38 in /  994.8 hPa WSW 5.2 mph /  8.4 km/h 8.1 mph /  13 km/h 92 % 0.00 in /  0 mm
11:43 55.7 °F /  13.2 °C 53.1 °F /  11.7 °C 29.40 in /  995.5 hPa WSW 4.1 mph /  6.6 km/h 6.9 mph /  11.1 km/h 91 % 0.00 in /  0 mm
11:48 55.7 °F /  13.2 °C 52.8 °F /  11.6 °C 29.40 in /  995.5 hPa West 6.9 mph /  11.1 km/h 11.5 mph /  18.5 km/h 90 % 0.00 in /  0 mm
11:53 55.6 °F /  13.1 °C 52.4 °F /  11.3 °C 29.40 in /  995.5 hPa SW 4.1 mph /  6.6 km/h 6.0 mph /  9.7 km/h 89 % 0.00 in /  0 mm
11:58 55.6 °F /  13.1 °C 52.1 °F /  11.2 °C 29.37 in /  994.5 hPa SW 1.2 mph /  1.9 km/h 6.9 mph /  11.1 km/h 88 % 0.00 in /  0 mm
12:03 55.6 °F /  13.1 °C 52.1 °F /  11.2 °C 29.37 in /  994.5 hPa West 0.5 mph /  0.8 km/h 5.8 mph /  9.3 km/h 88 % 0.00 in /  0 mm
12:08 55.7 °F /  13.2 °C 52.2 °F /  11.2 °C 29.37 in /  994.5 hPa WNW 3.8 mph /  6.1 km/h 9.2 mph /  14.8 km/h 88 % 0.00 in /  0 mm
12:13 55.7 °F /  13.2 °C 52.2 °F /  11.2 °C 29.37 in /  994.5 hPa West 3.6 mph /  5.8 km/h 10.4 mph /  16.7 km/h 88 % 0.00 in /  0 mm
12:18 55.8 °F /  13.2 °C 52.0 °F /  11.1 °C 29.37 in /  994.5 hPa West 4.1 mph /  6.6 km/h 8.1 mph /  13 km/h 87 % 0.00 in /  0 mm
12:24 55.9 °F /  13.3 °C 52.1 °F /  11.2 °C 29.37 in /  994.5 hPa West 1.4 mph /  2.3 km/h 2.3 mph /  3.7 km/h 87 % 0.00 in /  0 mm
12:34 56.1 °F /  13.4 °C 52.0 °F /  11.1 °C 29.38 in /  994.8 hPa West 3.1 mph /  5 km/h 4.6 mph /  7.4 km/h 86 % 0.00 in /  0 mm
12:39 56.2 °F /  13.4 °C 52.4 °F /  11.3 °C 29.38 in /  994.8 hPa WNW 0.7 mph /  1.1 km/h 5.8 mph /  9.3 km/h 87 % 0.00 in /  0 mm
12:44 56.3 °F /  13.5 °C 52.5 °F /  11.4 °C 29.37 in /  994.5 hPa WSW 3.5 mph /  5.6 km/h 5.8 mph /  9.3 km/h 87 % 0.00 in /  0 mm
12:49 56.4 °F /  13.6 °C 52.3 °F /  11.3 °C 29.37 in /  994.5 hPa WNW 4.1 mph /  6.6 km/h 8.1 mph /  13 km/h 86 % 0.00 in /  0 mm
12:54 56.5 °F /  13.6 °C 52.4 °F /  11.3 °C 29.37 in /  994.5 hPa WSW 1.9 mph /  3.1 km/h 4.6 mph /  7.4 km/h 86 % 0.00 in /  0 mm
12:59 56.6 °F /  13.7 °C 52.1 °F /  11.2 °C 29.37 in /  994.5 hPa WSW 1.3 mph /  2.1 km/h 5.0 mph /  8 km/h 85 % 0.00 in /  0 mm
13:04 56.6 °F /  13.7 °C 52.1 °F /  11.2 °C 29.37 in /  994.5 hPa WSW 1.3 mph /  2.1 km/h 3.5 mph /  5.6 km/h 85 % 0.00 in /  0 mm
13:09 56.7 °F /  13.7 °C 52.2 °F /  11.2 °C 29.37 in /  994.5 hPa WSW 1.8 mph /  2.9 km/h 3.5 mph /  5.6 km/h 85 % 0.00 in /  0 mm
13:14 56.7 °F /  13.7 °C 51.9 °F /  11.1 °C 29.37 in /  994.5 hPa West 5.6 mph /  9 km/h 8.1 mph /  13 km/h 84 % 0.00 in /  0 mm
13:19 56.7 °F /  13.7 °C 52.2 °F /  11.2 °C 29.37 in /  994.5 hPa West 2.3 mph /  3.7 km/h 6.9 mph /  11.1 km/h 85 % 0.00 in /  0 mm
13:24 56.8 °F /  13.8 °C 52.3 °F /  11.3 °C 29.37 in /  994.5 hPa West 4.3 mph /  6.9 km/h 6.9 mph /  11.1 km/h 85 % 0.00 in /  0 mm
13:29 56.8 °F /  13.8 °C 52.3 °F /  11.3 °C 29.37 in /  994.5 hPa WSW 1.6 mph /  2.6 km/h 3.5 mph /  5.6 km/h 85 % 0.00 in /  0 mm
13:34 56.9 °F /  13.8 °C 52.4 °F /  11.3 °C 29.37 in /  994.5 hPa WSW 0.4 mph /  0.6 km/h 3.5 mph /  5.6 km/h 85 % 0.00 in /  0 mm
13:39 56.9 °F /  13.8 °C 52.4 °F /  11.3 °C 29.36 in /  994.1 hPa SW 0.4 mph /  0.6 km/h 2.3 mph /  3.7 km/h 85 % 0.00 in /  0 mm
13:45 56.9 °F /  13.8 °C 52.1 °F /  11.2 °C 29.37 in /  994.5 hPa WSW 2.9 mph /  4.7 km/h 4.6 mph /  7.4 km/h 84 % 0.00 in /  0 mm
13:50 56.9 °F /  13.8 °C 52.1 °F /  11.2 °C 29.37 in /  994.5 hPa WSW 1.1 mph /  1.8 km/h 3.5 mph /  5.6 km/h 84 % 0.00 in /  0 mm
13:55 56.9 °F /  13.8 °C 52.4 °F /  11.3 °C 29.37 in /  994.5 hPa WSW 1.5 mph /  2.4 km/h 3.5 mph /  5.6 km/h 85 % 0.00 in /  0 mm
14:00 56.8 °F /  13.8 °C 52.0 °F /  11.1 °C 29.37 in /  994.5 hPa West 1.1 mph /  1.8 km/h 3.5 mph /  5.6 km/h 84 % 0.00 in /  0 mm
14:05 56.8 °F /  13.8 °C 52.3 °F /  11.3 °C 29.37 in /  994.5 hPa WSW 0.9 mph /  1.4 km/h 4.0 mph /  6.4 km/h 85 % 0.00 in /  0 mm
14:10 56.8 °F /  13.8 °C 52.3 °F /  11.3 °C 29.38 in /  994.8 hPa SW 3.9 mph /  6.3 km/h 4.6 mph /  7.4 km/h 85 % 0.00 in /  0 mm
14:15 56.8 °F /  13.8 °C 52.0 °F /  11.1 °C 29.38 in /  994.8 hPa WSW 2.3 mph /  3.7 km/h 5.8 mph /  9.3 km/h 84 % 0.00 in /  0 mm
14:20 56.9 °F /  13.8 °C 52.1 °F /  11.2 °C 29.39 in /  995.1 hPa WNW 2.5 mph /  4 km/h 6.9 mph /  11.1 km/h 84 % 0.00 in /  0 mm
14:25 56.8 °F /  13.8 °C 52.0 °F /  11.1 °C 29.39 in /  995.1 hPa WNW 4.8 mph /  7.7 km/h 8.1 mph /  13 km/h 84 % 0.00 in /  0 mm
14:30 56.6 °F /  13.7 °C 50.5 °F /  10.3 °C 29.40 in /  995.5 hPa West 3.9 mph /  6.3 km/h 6.9 mph /  11.1 km/h 80 % 0.00 in /  0 mm
14:35 56.4 °F /  13.6 °C 49.6 °F /  9.8 °C 29.40 in /  995.5 hPa WNW 4.1 mph /  6.6 km/h 10.4 mph /  16.7 km/h 78 % 0.00 in /  0 mm
14:40 56.2 °F /  13.4 °C 49.1 °F /  9.5 °C 29.40 in /  995.5 hPa West 4.2 mph /  6.8 km/h 9.2 mph /  14.8 km/h 77 % 0.00 in /  0 mm
14:45 55.9 °F /  13.3 °C 48.4 °F /  9.1 °C 29.41 in /  995.8 hPa WNW 4.1 mph /  6.6 km/h 9.2 mph /  14.8 km/h 76 % 0.00 in /  0 mm
14:50 55.5 °F /  13.1 °C 47.7 °F /  8.7 °C 29.41 in /  995.8 hPa West 7.6 mph /  12.2 km/h 11.5 mph /  18.5 km/h 75 % 0.00 in /  0 mm
14:55 55.2 °F /  12.9 °C 47.8 °F /  8.8 °C 29.42 in /  996.2 hPa WNW 5.2 mph /  8.4 km/h 12.7 mph /  20.4 km/h 76 % 0.00 in /  0 mm
15:00 54.9 °F /  12.7 °C 48.2 °F /  9 °C 29.42 in /  996.2 hPa West 3.3 mph /  5.3 km/h 9.0 mph /  14.5 km/h 78 % 0.00 in /  0 mm
15:05 54.5 °F /  12.5 °C 47.8 °F /  8.8 °C 29.42 in /  996.2 hPa WSW 4.4 mph /  7.1 km/h 6.0 mph /  9.7 km/h 78 % 0.00 in /  0 mm
15:10 54.2 °F /  12.3 °C 47.8 °F /  8.8 °C 29.43 in /  996.5 hPa NW 7.8 mph /  12.6 km/h 13.8 mph /  22.2 km/h 79 % 0.00 in /  0 mm
15:15 53.7 °F /  12.1 °C 47.3 °F /  8.5 °C 29.44 in /  996.8 hPa NNW 5.3 mph /  8.5 km/h 13.8 mph /  22.2 km/h 79 % 0.00 in /  0 mm
15:20 52.8 °F /  11.6 °C 46.1 °F /  7.8 °C 29.45 in /  997.2 hPa WNW 5.0 mph /  8 km/h 13.0 mph /  20.9 km/h 78 % 0.00 in /  0 mm
15:25 51.7 °F /  10.9 °C 45.8 °F /  7.7 °C 29.46 in /  997.5 hPa WNW 5.0 mph /  8 km/h 13.0 mph /  20.9 km/h 80 % 0.00 in /  0 mm
15:31 50.9 °F /  10.5 °C 45.3 °F /  7.4 °C 29.46 in /  997.5 hPa WNW 5.0 mph /  8 km/h 12.0 mph /  19.3 km/h 81 % 0.00 in /  0 mm
15:36 50.3 °F /  10.2 °C 45.3 °F /  7.4 °C 29.46 in /  997.5 hPa WNW 3.0 mph /  4.8 km/h 12.0 mph /  19.3 km/h 83 % 0.00 in /  0 mm
15:41 49.8 °F /  9.9 °C 45.5 °F /  7.5 °C 29.46 in /  997.5 hPa WNW 7.2 mph /  11.6 km/h 11.5 mph /  18.5 km/h 85 % 0.00 in /  0 mm
15:46 49.5 °F /  9.7 °C 45.5 °F /  7.5 °C 29.47 in /  997.9 hPa WNW 6.0 mph /  9.7 km/h 10.4 mph /  16.7 km/h 86 % 0.00 in /  0 mm
15:51 49.3 °F /  9.6 °C 45.6 °F /  7.6 °C 29.47 in /  997.9 hPa WNW 3.5 mph /  5.6 km/h 8.1 mph /  13 km/h 87 % 0.00 in /  0 mm
15:56 49.1 °F /  9.5 °C 45.7 °F /  7.6 °C 29.48 in /  998.2 hPa NW 4.2 mph /  6.8 km/h 8.1 mph /  13 km/h 88 % 0.00 in /  0 mm
16:01 49.0 °F /  9.4 °C 45.9 °F /  7.7 °C 29.48 in /  998.2 hPa WNW 3.9 mph /  6.3 km/h 9.0 mph /  14.5 km/h 89 % 0.00 in /  0 mm
16:06 48.9 °F /  9.4 °C 45.8 °F /  7.7 °C 29.48 in /  998.2 hPa WNW 3.9 mph /  6.3 km/h 8.1 mph /  13 km/h 89 % 0.00 in /  0 mm
16:11 48.8 °F /  9.3 °C 45.7 °F /  7.6 °C 29.48 in /  998.2 hPa WSW 3.5 mph /  5.6 km/h 6.9 mph /  11.1 km/h 89 % 0.00 in /  0 mm
16:16 48.7 °F /  9.3 °C 45.6 °F /  7.6 °C 29.48 in /  998.2 hPa West 7.7 mph /  12.4 km/h 9.2 mph /  14.8 km/h 89 % 0.00 in /  0 mm
16:21 48.5 °F /  9.2 °C 45.4 °F /  7.4 °C 29.49 in /  998.5 hPa West 4.4 mph /  7.1 km/h 9.2 mph /  14.8 km/h 89 % 0.00 in /  0 mm
16:26 48.4 °F /  9.1 °C 45.3 °F /  7.4 °C 29.51 in /  999.2 hPa West 6.3 mph /  10.1 km/h 10.4 mph /  16.7 km/h 89 % 0.00 in /  0 mm
16:31 48.3 °F /  9.1 °C 45.2 °F /  7.3 °C 29.51 in /  999.2 hPa West 4.8 mph /  7.7 km/h 6.9 mph /  11.1 km/h 89 % 0.00 in /  0 mm
16:36 48.1 °F /  8.9 °C 45.0 °F /  7.2 °C 29.52 in /  999.5 hPa WNW 7.6 mph /  12.2 km/h 13.8 mph /  22.2 km/h 89 % 0.00 in /  0 mm
16:41 47.8 °F /  8.8 °C 44.4 °F /  6.9 °C 29.52 in /  999.5 hPa NW 4.2 mph /  6.8 km/h 10.4 mph /  16.7 km/h 88 % 0.00 in /  0 mm
16:46 47.7 °F /  8.7 °C 44.3 °F /  6.8 °C 29.52 in /  999.5 hPa WNW 3.9 mph /  6.3 km/h 8.1 mph /  13 km/h 88 % 0.00 in /  0 mm
16:52 47.5 °F /  8.6 °C 44.1 °F /  6.7 °C 29.52 in /  999.5 hPa NW 5.3 mph /  8.5 km/h 9.2 mph /  14.8 km/h 88 % 0.00 in /  0 mm
16:57 47.2 °F /  8.4 °C 43.5 °F /  6.4 °C 29.52 in /  999.5 hPa WNW 2.2 mph /  3.5 km/h 4.0 mph /  6.4 km/h 87 % 0.00 in /  0 mm
17:02 47.0 °F /  8.3 °C 43.3 °F /  6.3 °C 29.53 in /  999.9 hPa NW 3.0 mph /  4.8 km/h 5.8 mph /  9.3 km/h 87 % 0.00 in /  0 mm
17:07 46.7 °F /  8.2 °C 43.0 °F /  6.1 °C 29.53 in /  999.9 hPa WNW 2.7 mph /  4.3 km/h 8.1 mph /  13 km/h 87 % 0.00 in /  0 mm
17:12 46.5 °F /  8.1 °C 42.8 °F /  6 °C 29.54 in /  1000.2 hPa WNW 2.6 mph /  4.2 km/h 11.5 mph /  18.5 km/h 87 % 0.00 in /  0 mm
17:17 46.2 °F /  7.9 °C 42.2 °F /  5.7 °C 29.54 in /  1000.2 hPa NW 2.7 mph /  4.3 km/h 9.0 mph /  14.5 km/h 86 % 0.00 in /  0 mm
17:22 46.0 °F /  7.8 °C 41.7 °F /  5.4 °C 29.55 in /  1000.6 hPa NW 6.8 mph /  10.9 km/h 11.5 mph /  18.5 km/h 85 % 0.00 in /  0 mm
17:27 45.8 °F /  7.7 °C 41.2 °F /  5.1 °C 29.55 in /  1000.6 hPa WNW 3.2 mph /  5.1 km/h 11.5 mph /  18.5 km/h 84 % 0.00 in /  0 mm
17:32 45.6 °F /  7.6 °C 40.7 °F /  4.8 °C 29.56 in /  1000.9 hPa West 6.3 mph /  10.1 km/h 11.5 mph /  18.5 km/h 83 % 0.00 in /  0 mm
17:37 45.6 °F /  7.6 °C 40.4 °F /  4.7 °C 29.57 in /  1001.2 hPa NW 4.4 mph /  7.1 km/h 10.4 mph /  16.7 km/h 82 % 0.00 in /  0 mm
17:42 45.5 °F /  7.5 °C 40.0 °F /  4.4 °C 29.57 in /  1001.2 hPa WNW 9.6 mph /  15.4 km/h 11.5 mph /  18.5 km/h 81 % 0.00 in /  0 mm
17:47 45.5 °F /  7.5 °C 39.7 °F /  4.3 °C 29.57 in /  1001.2 hPa NW 7.9 mph /  12.7 km/h 13.8 mph /  22.2 km/h 80 % 0.00 in /  0 mm
17:52 45.4 °F /  7.4 °C 38.9 °F /  3.8 °C 29.57 in /  1001.2 hPa West 7.5 mph /  12.1 km/h 13.8 mph /  22.2 km/h 78 % 0.00 in /  0 mm
17:57 45.2 °F /  7.3 °C 39.1 °F /  3.9 °C 29.58 in /  1001.6 hPa WNW 2.9 mph /  4.7 km/h 6.9 mph /  11.1 km/h 79 % 0.00 in /  0 mm
18:02 45.2 °F /  7.3 °C 39.4 °F /  4.1 °C 29.59 in /  1001.9 hPa West 5.9 mph /  9.5 km/h 6.0 mph /  9.7 km/h 80 % 0.00 in /  0 mm
18:07 45.1 °F /  7.3 °C 39.6 °F /  4.2 °C 29.60 in /  1002.3 hPa WNW 3.5 mph /  5.6 km/h 5.0 mph /  8 km/h 81 % 0.00 in /  0 mm
18:13 45.1 °F /  7.3 °C 39.6 °F /  4.2 °C 29.59 in /  1001.9 hPa WNW 5.7 mph /  9.2 km/h 9.2 mph /  14.8 km/h 81 % 0.00 in /  0 mm
18:18 44.9 °F /  7.2 °C 39.1 °F /  3.9 °C 29.60 in /  1002.3 hPa West 4.2 mph /  6.8 km/h 16.1 mph /  25.9 km/h 80 % 0.00 in /  0 mm
18:23 44.6 °F /  7 °C 38.2 °F /  3.4 °C 29.61 in /  1002.6 hPa West 6.7 mph /  10.8 km/h 17.3 mph /  27.8 km/h 78 % 0.00 in /  0 mm
18:28 44.3 °F /  6.8 °C 37.2 °F /  2.9 °C 29.62 in /  1002.9 hPa NW 6.6 mph /  10.6 km/h 12.7 mph /  20.4 km/h 76 % 0.00 in /  0 mm
18:33 44.2 °F /  6.8 °C 36.8 °F /  2.7 °C 29.63 in /  1003.3 hPa NNW 7.6 mph /  12.2 km/h 12.7 mph /  20.4 km/h 75 % 0.00 in /  0 mm
18:38 44.0 °F /  6.7 °C 36.6 °F /  2.6 °C 29.63 in /  1003.3 hPa NNW 6.6 mph /  10.6 km/h 12.7 mph /  20.4 km/h 75 % 0.00 in /  0 mm
18:43 43.8 °F /  6.6 °C 36.7 °F /  2.6 °C 29.64 in /  1003.6 hPa NW 7.4 mph /  11.9 km/h 11.5 mph /  18.5 km/h 76 % 0.00 in /  0 mm
18:48 43.7 °F /  6.5 °C 36.6 °F /  2.6 °C 29.64 in /  1003.6 hPa NW 4.7 mph /  7.6 km/h 8.1 mph /  13 km/h 76 % 0.00 in /  0 mm
18:53 43.6 °F /  6.4 °C 36.5 °F /  2.5 °C 29.64 in /  1003.6 hPa NW 6.8 mph /  10.9 km/h 11.5 mph /  18.5 km/h 76 % 0.00 in /  0 mm
18:58 43.4 °F /  6.3 °C 36.3 °F /  2.4 °C 29.64 in /  1003.6 hPa NNW 6.6 mph /  10.6 km/h 11.5 mph /  18.5 km/h 76 % 0.00 in /  0 mm
19:03 43.3 °F /  6.3 °C 35.9 °F /  2.2 °C 29.64 in /  1003.6 hPa NNW 4.2 mph /  6.8 km/h 11.5 mph /  18.5 km/h 75 % 0.00 in /  0 mm
19:08 43.2 °F /  6.2 °C 36.1 °F /  2.3 °C 29.64 in /  1003.6 hPa NNW 4.0 mph /  6.4 km/h 9.2 mph /  14.8 km/h 76 % 0.00 in /  0 mm
19:13 43.1 °F /  6.2 °C 36.0 °F /  2.2 °C 29.65 in /  1003.9 hPa NNW 3.7 mph /  6 km/h 10.4 mph /  16.7 km/h 76 % 0.00 in /  0 mm
19:18 43.0 °F /  6.1 °C 36.0 °F /  2.2 °C 29.66 in /  1004.3 hPa NW 6.7 mph /  10.8 km/h 12.7 mph /  20.4 km/h 76 % 0.00 in /  0 mm
19:23 42.8 °F /  6 °C 35.8 °F /  2.1 °C 29.67 in /  1004.6 hPa NNW 8.1 mph /  13 km/h 13.8 mph /  22.2 km/h 76 % 0.00 in /  0 mm
19:28 42.7 °F /  5.9 °C 35.3 °F /  1.8 °C 29.67 in /  1004.6 hPa NW 6.2 mph /  10 km/h 11.5 mph /  18.5 km/h 75 % 0.00 in /  0 mm
19:33 42.5 °F /  5.8 °C 35.1 °F /  1.7 °C 29.68 in /  1005 hPa WNW 7.8 mph /  12.6 km/h 16.1 mph /  25.9 km/h 75 % 0.00 in /  0 mm
19:38 42.5 °F /  5.8 °C 35.1 °F /  1.7 °C 29.68 in /  1005 hPa NW 6.5 mph /  10.5 km/h 14.0 mph /  22.5 km/h 75 % 0.00 in /  0 mm
19:44 42.4 °F /  5.8 °C 34.7 °F /  1.5 °C 29.69 in /  1005.3 hPa NNW 6.6 mph /  10.6 km/h 11.5 mph /  18.5 km/h 74 % 0.00 in /  0 mm
19:49 42.3 °F /  5.7 °C 34.6 °F /  1.4 °C 29.70 in /  1005.6 hPa NW 7.3 mph /  11.7 km/h 12.7 mph /  20.4 km/h 74 % 0.00 in /  0 mm
19:54 42.3 °F /  5.7 °C 34.9 °F /  1.6 °C 29.70 in /  1005.6 hPa NW 8.0 mph /  12.9 km/h 15.0 mph /  24.1 km/h 75 % 0.00 in /  0 mm
19:59 42.1 °F /  5.6 °C 34.4 °F /  1.3 °C 29.70 in /  1005.6 hPa NNW 6.5 mph /  10.5 km/h 18.4 mph /  29.6 km/h 74 % 0.00 in /  0 mm
20:04 42.0 °F /  5.6 °C 34.3 °F /  1.3 °C 29.71 in /  1006 hPa WNW 8.8 mph /  14.2 km/h 12.7 mph /  20.4 km/h 74 % 0.00 in /  0 mm
20:09 41.9 °F /  5.5 °C 34.2 °F /  1.2 °C 29.70 in /  1005.6 hPa West 7.1 mph /  11.4 km/h 16.1 mph /  25.9 km/h 74 % 0.00 in /  0 mm
20:14 41.7 °F /  5.4 °C 34.0 °F /  1.1 °C 29.71 in /  1006 hPa WNW 5.4 mph /  8.7 km/h 11.5 mph /  18.5 km/h 74 % 0.00 in /  0 mm
20:19 41.5 °F /  5.3 °C 33.5 °F /  0.8 °C 29.72 in /  1006.3 hPa NNW 5.9 mph /  9.5 km/h 9.2 mph /  14.8 km/h 73 % 0.00 in /  0 mm
20:24 41.4 °F /  5.2 °C 33.4 °F /  0.8 °C 29.72 in /  1006.3 hPa WNW 5.7 mph /  9.2 km/h 15.0 mph /  24.1 km/h 73 % 0.00 in /  0 mm
20:29 41.3 °F /  5.2 °C 33.3 °F /  0.7 °C 29.72 in /  1006.3 hPa NW 5.5 mph /  8.9 km/h 10.4 mph /  16.7 km/h 73 % 0.00 in /  0 mm
20:34 41.1 °F /  5.1 °C 33.1 °F /  0.6 °C 29.73 in /  1006.7 hPa NW 6.3 mph /  10.1 km/h 11.5 mph /  18.5 km/h 73 % 0.00 in /  0 mm
20:39 41.0 °F /  5 °C 33.0 °F /  0.6 °C 29.74 in /  1007 hPa NW 5.3 mph /  8.5 km/h 11.5 mph /  18.5 km/h 73 % 0.00 in /  0 mm
20:44 40.9 °F /  4.9 °C 32.9 °F /  0.5 °C 29.74 in /  1007 hPa NW 5.6 mph /  9 km/h 11.5 mph /  18.5 km/h 73 % 0.00 in /  0 mm
20:49 40.7 °F /  4.8 °C 32.7 °F /  0.4 °C 29.75 in /  1007.3 hPa NW 5.0 mph /  8 km/h 10.4 mph /  16.7 km/h 73 % 0.00 in /  0 mm
20:54 40.5 °F /  4.7 °C 32.5 °F /  0.3 °C 29.75 in /  1007.3 hPa NW 3.2 mph /  5.1 km/h 10.4 mph /  16.7 km/h 73 % 0.00 in /  0 mm
20:59 40.4 °F /  4.7 °C 32.1 °F /  0.1 °C 29.76 in /  1007.7 hPa WNW 4.5 mph /  7.2 km/h 11.5 mph /  18.5 km/h 72 % 0.00 in /  0 mm
21:04 40.3 °F /  4.6 °C 32.0 °F /  0 °C 29.76 in /  1007.7 hPa NW 5.0 mph /  8 km/h 12.7 mph /  20.4 km/h 72 % 0.00 in /  0 mm
21:09 40.2 °F /  4.6 °C 31.9 °F /  -0.1 °C 29.76 in /  1007.7 hPa WNW 5.2 mph /  8.4 km/h 11.5 mph /  18.5 km/h 72 % 0.00 in /  0 mm
21:15 40.1 °F /  4.5 °C 31.4 °F /  -0.3 °C 29.77 in /  1008 hPa WNW 8.1 mph /  13 km/h 10.0 mph /  16.1 km/h 71 % 0.00 in /  0 mm
21:20 40.0 °F /  4.4 °C 31.4 °F /  -0.3 °C 29.77 in /  1008 hPa WNW 8.5 mph /  13.7 km/h 13.0 mph /  20.9 km/h 71 % 0.00 in /  0 mm
21:25 39.9 °F /  4.4 °C 30.9 °F /  -0.6 °C 29.78 in /  1008.4 hPa NW 4.6 mph /  7.4 km/h 9.2 mph /  14.8 km/h 70 % 0.00 in /  0 mm
21:35 39.7 °F /  4.3 °C 30.7 °F /  -0.7 °C 29.78 in /  1008.4 hPa NW 4.9 mph /  7.9 km/h 9.2 mph /  14.8 km/h 70 % 0.00 in /  0 mm
21:40 39.6 °F /  4.2 °C 31.0 °F /  -0.6 °C 29.79 in /  1008.7 hPa WSW 0.4 mph /  0.6 km/h 6.9 mph /  11.1 km/h 71 % 0.00 in /  0 mm
21:45 39.4 °F /  4.1 °C 30.8 °F /  -0.7 °C 29.80 in /  1009 hPa WNW 5.6 mph /  9 km/h 11.5 mph /  18.5 km/h 71 % 0.00 in /  0 mm
21:50 39.3 °F /  4.1 °C 30.7 °F /  -0.7 °C 29.80 in /  1009 hPa WNW 4.1 mph /  6.6 km/h 6.0 mph /  9.7 km/h 71 % 0.00 in /  0 mm
21:55 39.1 °F /  3.9 °C 30.5 °F /  -0.8 °C 29.81 in /  1009.4 hPa West 3.0 mph /  4.8 km/h 6.9 mph /  11.1 km/h 71 % 0.00 in /  0 mm
22:00 38.9 °F /  3.8 °C 30.3 °F /  -0.9 °C 29.82 in /  1009.7 hPa NW 5.4 mph /  8.7 km/h 9.2 mph /  14.8 km/h 71 % 0.00 in /  0 mm
22:05 38.8 °F /  3.8 °C 30.5 °F /  -0.8 °C 29.82 in /  1009.7 hPa WNW 5.0 mph /  8 km/h 10.0 mph /  16.1 km/h 72 % 0.00 in /  0 mm
22:10 38.7 °F /  3.7 °C 30.4 °F /  -0.9 °C 29.82 in /  1009.7 hPa WNW 4.7 mph /  7.6 km/h 7.0 mph /  11.3 km/h 72 % 0.00 in /  0 mm
22:15 38.6 °F /  3.7 °C 30.0 °F /  -1.1 °C 29.83 in /  1010 hPa WNW 3.2 mph /  5.1 km/h 10.4 mph /  16.7 km/h 71 % 0.00 in /  0 mm
22:20 38.4 °F /  3.6 °C 29.8 °F /  -1.2 °C 29.83 in /  1010 hPa WNW 1.4 mph /  2.3 km/h 4.6 mph /  7.4 km/h 71 % 0.00 in /  0 mm
22:25 38.4 °F /  3.6 °C 29.8 °F /  -1.2 °C 29.84 in /  1010.4 hPa NW 2.8 mph /  4.5 km/h 10.4 mph /  16.7 km/h 71 % 0.00 in /  0 mm
22:30 38.3 °F /  3.5 °C 29.7 °F /  -1.3 °C 29.84 in /  1010.4 hPa WNW 3.7 mph /  6 km/h 4.6 mph /  7.4 km/h 71 % 0.00 in /  0 mm
22:35 38.2 °F /  3.4 °C 29.6 °F /  -1.3 °C 29.84 in /  1010.4 hPa NW 1.0 mph /  1.6 km/h 3.5 mph /  5.6 km/h 71 % 0.00 in /  0 mm
22:40 38.0 °F /  3.3 °C 29.8 °F /  -1.2 °C 29.85 in /  1010.7 hPa NW 1.3 mph /  2.1 km/h 2.3 mph /  3.7 km/h 72 % 0.00 in /  0 mm
22:45 37.9 °F /  3.3 °C 30.0 °F /  -1.1 °C 29.85 in /  1010.7 hPa NW 2.2 mph /  3.5 km/h 4.0 mph /  6.4 km/h 73 % 0.00 in /  0 mm
22:51 37.7 °F /  3.2 °C 30.2 °F /  -1 °C 29.85 in /  1010.7 hPa NW 3.0 mph /  4.8 km/h 7.0 mph /  11.3 km/h 74 % 0.00 in /  0 mm
22:56 37.5 °F /  3.1 °C 30.3 °F /  -0.9 °C 29.85 in /  1010.7 hPa NW 2.0 mph /  3.2 km/h 7.0 mph /  11.3 km/h 75 % 0.00 in /  0 mm
23:01 37.3 °F /  2.9 °C 29.8 °F /  -1.2 °C 29.86 in /  1011.1 hPa NW 1.5 mph /  2.4 km/h 3.5 mph /  5.6 km/h 74 % 0.00 in /  0 mm
23:06 37.2 °F /  2.9 °C 29.7 °F /  -1.3 °C 29.86 in /  1011.1 hPa Calm     74 % 0.00 in /  0 mm
23:11 37.1 °F /  2.8 °C 29.9 °F /  -1.2 °C 29.88 in /  1011.7 hPa WNW 0.8 mph /  1.3 km/h 3.5 mph /  5.6 km/h 75 % 0.00 in /  0 mm
23:16 36.9 °F /  2.7 °C 29.4 °F /  -1.4 °C 29.88 in /  1011.7 hPa North 4.0 mph /  6.4 km/h 6.9 mph /  11.1 km/h 74 % 0.00 in /  0 mm
23:21 36.8 °F /  2.7 °C 28.6 °F /  -1.9 °C 29.88 in /  1011.7 hPa NNW 2.9 mph /  4.7 km/h 5.8 mph /  9.3 km/h 72 % 0.00 in /  0 mm
23:26 36.6 °F /  2.6 °C 28.4 °F /  -2 °C 29.88 in /  1011.7 hPa NNW 3.1 mph /  5 km/h 6.9 mph /  11.1 km/h 72 % 0.00 in /  0 mm
23:31 36.6 °F /  2.6 °C 28.4 °F /  -2 °C 29.89 in /  1012.1 hPa NW 1.6 mph /  2.6 km/h 3.5 mph /  5.6 km/h 72 % 0.00 in /  0 mm
23:36 36.6 °F /  2.6 °C 28.1 °F /  -2.2 °C 29.90 in /  1012.4 hPa WNW 2.0 mph /  3.2 km/h 5.8 mph /  9.3 km/h 71 % 0.00 in /  0 mm
23:41 36.6 °F /  2.6 °C 28.4 °F /  -2 °C 29.90 in /  1012.4 hPa Calm   1.2 mph /  1.9 km/h 72 % 0.00 in /  0 mm
23:46 36.6 °F /  2.6 °C 28.4 °F /  -2 °C 29.90 in /  1012.4 hPa North 0.2 mph /  0.3 km/h 1.2 mph /  1.9 km/h 72 % 0.00 in /  0 mm
23:51 36.5 °F /  2.5 °C 28.7 °F /  -1.8 °C 29.91 in /  1012.8 hPa NW 0.4 mph /  0.6 km/h 3.5 mph /  5.6 km/h 73 % 0.00 in /  0 mm
23:56 36.5 °F /  2.5 °C 29.0 °F /  -1.7 °C 29.91 in /  1012.8 hPa Calm   2.3 mph /  3.7 km/h 74 % 0.00 in /  0 mm
Crab Meadow Weather
Compliments of Weather Underground - 3 mb

Script developed by  Jim McMurry - jmcmurry@mwt.net Adapted for the template by  Wim van der Kuil - Leuven-Template.eu

Recycling: Every ton of mixed paper recycled can save the energy equivalent of 185 gallons of gas.